Terminal Aerodrome Forecast
Issued by NWS Pueblo, CO

Home | Current Version | Previous Version | Text Only | Print | Product List | Glossary On
Versions: 1 2 3 4 5 6 7 8 9 10 11 12 13 14 15 16 17 18 19 20 21 22 23 24
000
FTUS45 KPUB 272320
TAFCOS
TAF
KCOS 272320Z 2800/2824 12011KT P6SM FEW100 SCT150
     FM280200 VRB06KT P6SM SCT110 SCT200
     FM280700 02007KT P6SM FEW200
     FM281700 13008KT P6SM FEW150
     FM282100 14012KT P6SM VCTS SCT110CB BKN200=

USA.gov is the U.S. government's official web portal to all federal, state and local government web resources and services.